Friday, May 25, 2018, 8:05 PM EDT
Back to Local

KEEN, Keene, Dillant-hopkins Airport

Location: Keene, NH, United States Lat: 42.9
Local Time: 8:05 PM EDT ( 0:05 GMT) Lon: -72.267
Time Zone: US/Eastern Elev: 488 ft

Show me the last for .
Show Decoded

2018-05-25 18:56 METAR KEEN 252256Z AUTO 30004KT 10SM BKN090 26/09 A2976 RMK AO2 SLP095 T02610089
                 =
2018-05-25 17:56 METAR KEEN 252156Z AUTO 27004KT 10SM OVC090 28/08 A2976 RMK AO2 SLP093 T02830078
                 =
2018-05-25 16:56 METAR KEEN 252056Z AUTO 25010G15KT 220V290 10SM BKN110 29/08 A2977 RMK AO2
                 SLP095 T02940078 56017 =
2018-05-25 15:56 METAR KEEN 251956Z AUTO 25008KT 10SM OVC120 31/07 A2978 RMK AO2 SLP099 T03060067
                 =
2018-05-25 14:56 METAR KEEN 251856Z AUTO 27007KT 220V320 10SM CLR 30/08 A2980 RMK AO2 SLP106
                 T03000078 =
2018-05-25 13:56 METAR KEEN 251756Z AUTO 26010G18KT 5SM HZ CLR 29/07 A2982 RMK AO2 SLP112
                 T02940072 10300 20156 56028 =
2018-05-25 12:56 METAR KEEN 251656Z AUTO 27011G21KT 10SM CLR 29/08 A2984 RMK AO2 SLP119 T02940078
                 =
2018-05-25 11:56 METAR KEEN 251556Z AUTO 27008G16KT 220V320 10SM CLR 29/09 A2986 RMK AO2 SLP127
                 T02940094 =
2018-05-25 10:56 METAR KEEN 251456Z AUTO 21010KT 10SM CLR 27/12 A2990 RMK AO2 SLP141 T02670117
                 58024 =
2018-05-25 09:56 METAR KEEN 251356Z AUTO 21008KT 10SM CLR 24/11 A2993 RMK AO2 SLP150 T02440106 =
2018-05-25 08:56 METAR KEEN 251256Z AUTO VRB03KT 10SM CLR 19/13 A2996 RMK AO2 SLP161 T01940128 =
2018-05-25 07:56 METAR KEEN 251156Z AUTO 00000KT 10SM CLR 15/12 A2998 RMK AO2 SLP166 T01500117
                 10150 20067 58005 =
2018-05-25 06:56 METAR KEEN 251056Z AUTO 20003KT 10SM CLR 09/09 A2999 RMK AO2 SLP171 T00940089 =
2018-05-25 04:56 METAR KEEN 250856Z AUTO 00000KT 10SM CLR 07/06 A2999 RMK AO2 SLP173 T00670061
                 56010 =
2018-05-25 03:56 METAR KEEN 250756Z AUTO 00000KT 10SM CLR 07/07 A3000 RMK AO2 SLP177 T00720072 =
2018-05-25 02:56 METAR KEEN 250656Z AUTO 00000KT 10SM CLR 08/07 A3001 RMK AO2 SLP179 T00780072 =
2018-05-25 01:56 METAR KEEN 250556Z AUTO 00000KT 10SM CLR 08/07 A3002 RMK AO2 SLP184 T00830072
                 10211 20083 58007 =
2018-05-25 00:56 METAR KEEN 250456Z AUTO 00000KT 10SM CLR 09/07 A3004 RMK AO2 SLP189 T00890072
                 402670061 =
2018-05-24 22:56 METAR KEEN 250256Z AUTO 00000KT 10SM CLR 11/07 A3004 RMK AO2 SLP191 T01110072
                 50003 =
2018-05-24 21:56 METAR KEEN 250156Z AUTO 00000KT 10SM CLR 13/07 A3005 RMK AO2 SLP192 T01280067 =
2018-05-24 20:56 METAR KEEN 250056Z AUTO 00000KT 10SM CLR 15/08 A3004 RMK AO2 SLP190 T01500078 =

Support USWX by starting your Amazon purchase here.